Time;durP1;ratioP1;P1;durP2;ratioP2;P2;SDS_P1;SDS_P2;PMS_P1;PMS_P2;Temp;Humidity;BMP_temperature;BMP_pressure;BME280_temperature;BME280_humidity;BME280_pressure;Samples;Min_cycle;Max_cycle;Signal;HPM_P1;HPM_P2
2024/03/13 00:00:42;;;;;;;;;;;22.60;42.90;;;;;;5053450;28;19929;-65
2024/03/13 00:03:09;;;;;;;;;;;22.60;42.90;;;;;;5053115;28;19929;-64
2024/03/13 00:05:36;;;;;;;;;;;22.60;42.90;;;;;;5053628;28;20271;-64
2024/03/13 00:08:07;;;;;;;;;;;22.60;42.90;;;;;;5053536;28;19964;-64
2024/03/13 00:10:34;;;;;;;;;;;22.60;42.90;;;;;;5053155;28;19931;-64
2024/03/13 00:13:01;;;;;;;;;;;22.60;42.90;;;;;;5053483;28;19924;-64
2024/03/13 00:15:28;;;;;;;;;;;22.60;42.90;;;;;;5052979;28;19925;-64
2024/03/13 00:17:55;;;;;;;;;;;22.60;42.90;;;;;;5053436;28;20345;-64
2024/03/13 00:20:22;;;;;;;;;;;22.60;42.90;;;;;;5053256;28;19948;-64
2024/03/13 00:22:50;;;;;;;;;;;22.60;42.90;;;;;;5053371;28;19925;-64
2024/03/13 00:25:17;;;;;;;;;;;22.60;43.00;;;;;;5053286;28;19975;-64
2024/03/13 00:27:46;;;;;;;;;;;22.60;43.00;;;;;;5053174;28;19925;-64
2024/03/13 00:30:15;;;;;;;;;;;22.60;43.50;;;;;;5052919;28;20008;-64
2024/03/13 00:32:44;;;;;;;;;;;22.50;43.00;;;;;;5053026;28;19931;-64
2024/03/13 00:35:14;;;;;;;;;;;22.60;43.00;;;;;;5052684;28;19925;-64
2024/03/13 00:37:41;;;;;;;;;;;22.60;43.00;;;;;;5053060;28;20004;-64
2024/03/13 00:40:09;;;;;;;;;;;22.50;43.00;;;;;;5052757;28;20015;-64
2024/03/13 00:42:36;;;;;;;;;;;22.50;43.00;;;;;;5053273;28;19925;-64
2024/03/13 00:45:03;;;;;;;;;;;22.50;43.00;;;;;;5052708;28;20015;-64
2024/03/13 00:47:31;;;;;;;;;;;22.50;43.00;;;;;;5052853;28;19932;-65
2024/03/13 00:49:58;;;;;;;;;;;22.50;43.60;;;;;;5053119;28;20371;-64
2024/03/13 00:52:27;;;;;;;;;;;22.50;43.00;;;;;;5052746;28;19925;-65
2024/03/13 00:54:54;;;;;;;;;;;22.50;43.00;;;;;;5052626;28;19971;-64
2024/03/13 00:57:21;;;;;;;;;;;22.50;43.00;;;;;;5052781;28;20023;-64
2024/03/13 05:56:16;;;;;;;;;;;22.80;40.00;;;;;;5055375;28;19927;-67
2024/03/13 05:58:43;;;;;;;;;;;22.80;39.90;;;;;;5053048;28;19979;-63
2024/03/13 06:01:14;;;;;;;;;;;22.80;40.00;;;;;;5054932;28;19925;-66
2024/03/13 06:03:42;;;;;;;;;;;22.90;40.10;;;;;;5052097;28;19924;-65
2024/03/13 06:06:11;;;;;;;;;;;22.90;40.10;;;;;;5053830;28;19925;-66
2024/03/13 06:08:38;;;;;;;;;;;22.90;40.10;;;;;;5053734;28;20011;-65
2024/03/13 06:11:05;;;;;;;;;;;23.00;40.10;;;;;;5055380;28;19925;-67
2024/03/13 06:13:32;;;;;;;;;;;23.00;40.10;;;;;;5053414;28;20342;-65
2024/03/13 06:16:00;;;;;;;;;;;23.00;40.00;;;;;;5054342;28;20018;-66
2024/03/13 06:18:27;;;;;;;;;;;23.10;39.90;;;;;;5058235;28;20139;-65
2024/03/13 06:20:54;;;;;;;;;;;23.10;39.90;;;;;;5051832;28;19925;-65
2024/03/13 06:23:23;;;;;;;;;;;23.10;39.80;;;;;;5049726;28;19925;-64
2024/03/13 06:25:52;;;;;;;;;;;23.20;39.70;;;;;;5047574;28;19924;-63
2024/03/13 06:31:06;;;;;;;;;;;23.30;39.40;;;;;;5050086;28;19925;-66
2024/03/13 06:33:33;;;;;;;;;;;23.20;39.20;;;;;;5049299;28;19955;-67
2024/03/13 06:36:01;;;;;;;;;;;23.30;39.30;;;;;;5044023;28;19925;-64
2024/03/13 06:38:28;;;;;;;;;;;23.30;39.50;;;;;;5046532;28;19928;-65
2024/03/13 06:40:56;;;;;;;;;;;23.30;39.60;;;;;;5049559;28;19932;-66
2024/03/13 06:43:23;;;;;;;;;;;23.30;39.90;;;;;;5048347;28;19928;-66
2024/03/13 06:45:50;;;;;;;;;;;23.40;40.10;;;;;;5049710;28;19929;-67
2024/03/13 06:48:18;;;;;;;;;;;23.40;40.20;;;;;;5048289;28;20346;-64
2024/03/13 06:50:45;;;;;;;;;;;23.40;40.30;;;;;;5050839;28;19932;-65
2024/03/13 06:53:12;;;;;;;;;;;23.50;40.20;;;;;;5049633;28;20446;-64
2024/03/13 06:55:38;;;;;;;;;;;23.50;40.00;;;;;;5050348;28;20319;-63
2024/03/13 06:58:05;;;;;;;;;;;23.50;39.70;;;;;;5047314;28;19933;-66
2024/03/13 07:00:32;;;;;;;;;;;23.50;39.40;;;;;;5046218;28;19939;-65
2024/03/13 07:03:02;;;;;;;;;;;23.60;39.10;;;;;;5041678;28;19932;-65
2024/03/13 07:05:29;;;;;;;;;;;23.60;38.50;;;;;;5044001;28;20341;-66
2024/03/13 07:07:56;;;;;;;;;;;23.60;38.20;;;;;;5046199;28;20019;-65
2024/03/13 07:10:23;;;;;;;;;;;23.60;37.90;;;;;;5046681;28;19932;-66
2024/03/13 07:12:51;;;;;;;;;;;23.60;37.50;;;;;;5043436;28;19932;-65
2024/03/13 07:15:18;;;;;;;;;;;23.60;37.10;;;;;;5039537;28;19956;-65
2024/03/13 07:17:45;;;;;;;;;;;23.60;36.80;;;;;;5045847;28;19925;-63
2024/03/13 07:20:13;;;;;;;;;;;23.60;36.70;;;;;;5041615;28;19933;-63
2024/03/13 07:22:41;;;;;;;;;;;23.60;36.90;;;;;;5041557;28;19935;-62
2024/03/13 07:25:09;;;;;;;;;;;23.60;37.10;;;;;;5045361;28;20202;-64
2024/03/13 07:27:37;;;;;;;;;;;23.60;37.20;;;;;;5042828;28;20395;-62
2024/03/13 07:30:05;;;;;;;;;;;23.60;37.30;;;;;;5044455;28;19940;-62
2024/03/13 07:32:32;;;;;;;;;;;23.60;37.40;;;;;;5043552;28;20763;-62
2024/03/13 07:34:59;;;;;;;;;;;23.60;37.50;;;;;;5045070;28;20347;-61
2024/03/13 07:37:26;;;;;;;;;;;23.70;37.50;;;;;;5039767;28;20400;-62
2024/03/13 07:39:53;;;;;;;;;;;23.70;37.60;;;;;;5039565;28;19929;-63
2024/03/13 07:42:20;;;;;;;;;;;23.70;37.60;;;;;;5045436;28;19937;-63
2024/03/13 07:44:47;;;;;;;;;;;23.70;37.60;;;;;;5040780;28;20345;-64
2024/03/13 07:47:14;;;;;;;;;;;23.80;37.60;;;;;;5045251;28;20019;-63
2024/03/13 07:49:43;;;;;;;;;;;23.80;37.50;;;;;;5048723;28;19929;-62
2024/03/13 07:52:12;;;;;;;;;;;23.80;37.40;;;;;;5043913;28;20382;-62
2024/03/13 07:54:39;;;;;;;;;;;23.90;37.50;;;;;;5046131;28;19933;-61
2024/03/13 07:57:08;;;;;;;;;;;23.90;37.50;;;;;;5038966;28;19933;-62
2024/03/13 07:59:35;;;;;;;;;;;23.90;37.40;;;;;;5042923;28;20386;-62
2024/03/13 08:02:02;;;;;;;;;;;23.90;37.30;;;;;;5044456;28;19960;-62
2024/03/13 08:04:30;;;;;;;;;;;23.90;37.30;;;;;;5045497;28;19932;-62
2024/03/13 08:06:58;;;;;;;;;;;24.00;37.40;;;;;;5041680;28;19933;-61
2024/03/13 08:09:43;;;;;;;;;;;24.00;37.30;;;;;;5043967;28;20274;-61
2024/03/13 08:12:27;;;;;;;;;;;24.00;37.20;;;;;;5045350;28;19928;-61
2024/03/13 08:15:11;;;;;;;;;;;24.10;37.30;;;;;;5043129;28;19943;-62
2024/03/13 08:17:56;;;;;;;;;;;24.10;37.30;;;;;;5030120;28;20453;-62
2024/03/13 08:20:41;;;;;;;;;;;24.10;37.10;;;;;;5045199;28;20033;-62
2024/03/13 08:23:25;;;;;;;;;;;24.10;37.00;;;;;;5042336;28;19924;-62
2024/03/13 08:26:10;;;;;;;;;;;24.10;37.10;;;;;;5041719;28;20289;-62
2024/03/13 08:28:54;;;;;;;;;;;24.10;36.70;;;;;;5041993;28;19923;-65
2024/03/13 08:31:39;;;;;;;;;;;24.20;35.70;;;;;;5034894;28;19943;-63
2024/03/13 08:34:24;;;;;;;;;;;24.10;34.60;;;;;;5044841;28;19931;-62
2024/03/13 08:37:08;;;;;;;;;;;24.10;34.70;;;;;;5045441;28;19932;-61
2024/03/13 08:39:53;;;;;;;;;;;24.10;34.90;;;;;;5049169;28;19928;-62
2024/03/13 08:42:39;;;;;;;;;;;24.10;35.30;;;;;;5048041;28;19982;-62
2024/03/13 08:45:25;;;;;;;;;;;24.20;35.40;;;;;;5045125;28;19943;-62
2024/03/13 08:48:11;;;;;;;;;;;24.30;35.60;;;;;;5045343;28;20014;-61
2024/03/13 08:50:57;;;;;;;;;;;24.40;35.60;;;;;;5044210;28;21295;-62
2024/03/13 08:53:41;;;;;;;;;;;24.60;35.60;;;;;;5047561;28;19930;-60
2024/03/13 08:56:27;;;;;;;;;;;24.70;35.50;;;;;;5040077;28;19990;-61
2024/03/13 08:59:11;;;;;;;;;;;24.90;35.60;;;;;;5043367;28;20460;-61
2024/03/13 09:01:56;;;;;;;;;;;25.10;35.70;;;;;;5045413;28;20498;-62
2024/03/13 09:04:40;;;;;;;;;;;25.20;35.70;;;;;;5044215;28;19962;-63
2024/03/13 09:07:26;;;;;;;;;;;25.40;35.90;;;;;;5042865;28;19923;-62
2024/03/13 09:09:53;;;;;;;;;;;25.50;35.80;;;;;;5044350;28;19935;-61
2024/03/13 09:12:20;;;;;;;;;;;25.70;35.60;;;;;;5044901;28;20032;-61
2024/03/13 09:14:47;;;;;;;;;;;25.80;35.30;;;;;;5050701;28;20030;-63
2024/03/13 09:17:14;;;;;;;;;;;25.90;35.30;;;;;;5042633;28;19932;-63
2024/03/13 09:19:41;;;;;;;;;;;26.10;35.10;;;;;;5045578;28;20023;-61
2024/03/13 09:22:17;;;;;;;;;;;26.10;35.00;;;;;;5047026;28;19929;-61
2024/03/13 09:24:44;;;;;;;;;;;26.30;34.90;;;;;;5047538;28;19935;-62
2024/03/13 09:27:11;;;;;;;;;;;26.40;35.00;;;;;;5047005;28;19971;-64
2024/03/13 09:29:38;;;;;;;;;;;26.50;34.50;;;;;;5045158;28;20507;-64
2024/03/13 09:32:05;;;;;;;;;;;26.60;34.40;;;;;;5047739;28;19932;-64
2024/03/13 09:34:32;;;;;;;;;;;26.70;34.30;;;;;;5047025;28;20008;-65
2024/03/13 09:37:04;;;;;;;;;;;26.80;34.20;;;;;;5047965;28;19944;-65
2024/03/13 09:39:32;;;;;;;;;;;26.90;34.20;;;;;;5048696;28;19931;-67
2024/03/13 09:41:58;;;;;;;;;;;27.00;34.10;;;;;;5050155;28;20424;-63
2024/03/13 09:44:26;;;;;;;;;;;27.00;34.00;;;;;;5049363;28;20301;-63
2024/03/13 09:46:54;;;;;;;;;;;27.10;33.90;;;;;;5049947;28;20429;-64
2024/03/13 09:49:25;;;;;;;;;;;27.20;34.00;;;;;;5045972;28;20366;-65
2024/03/13 09:51:53;;;;;;;;;;;27.20;34.00;;;;;;5051840;28;19971;-63
2024/03/13 09:54:21;;;;;;;;;;;27.30;33.90;;;;;;5047234;28;19966;-66
2024/03/13 09:56:48;;;;;;;;;;;27.40;33.90;;;;;;5049311;28;19940;-64
2024/03/13 09:59:15;;;;;;;;;;;27.50;33.60;;;;;;5048031;28;20370;-66
2024/03/13 10:01:48;;;;;;;;;;;27.50;33.60;;;;;;5029781;28;19931;-66
2024/03/13 10:04:22;;;;;;;;;;;27.60;33.60;;;;;;5045382;28;20258;-68
2024/03/13 10:06:58;;;;;;;;;;;27.60;33.50;;;;;;5045890;28;20653;-63
2024/03/13 10:09:31;;;;;;;;;;;27.70;33.40;;;;;;5046827;28;20378;-62
2024/03/13 10:12:00;;;;;;;;;;;27.70;33.30;;;;;;5048051;28;20433;-61
2024/03/13 10:14:27;;;;;;;;;;;27.70;33.10;;;;;;5048474;28;19929;-61
2024/03/13 10:16:58;;;;;;;;;;;27.70;33.40;;;;;;5046799;28;19982;-61
2024/03/13 10:19:31;;;;;;;;;;;27.70;33.40;;;;;;5045154;28;20367;-62
2024/03/13 10:21:58;;;;;;;;;;;27.70;33.50;;;;;;5048912;28;19950;-62
2024/03/13 10:24:28;;;;;;;;;;;27.70;33.70;;;;;;5048408;28;19978;-59
2024/03/13 10:26:56;;;;;;;;;;;27.70;33.70;;;;;;5045323;28;19925;-63
2024/03/13 10:29:23;;;;;;;;;;;27.60;33.60;;;;;;5047753;28;19933;-60
2024/03/13 10:31:51;;;;;;;;;;;27.60;33.70;;;;;;5046927;28;19935;-60
2024/03/13 10:34:19;;;;;;;;;;;27.60;33.70;;;;;;5047709;28;20262;-61
2024/03/13 10:36:47;;;;;;;;;;;27.60;33.70;;;;;;5049594;28;19924;-60
2024/03/13 10:39:35;;;;;;;;;;;27.60;33.70;;;;;;5047103;28;20012;-61
2024/03/13 10:42:02;;;;;;;;;;;27.50;33.60;;;;;;5050818;28;19935;-60
2024/03/13 10:44:29;;;;;;;;;;;27.50;33.70;;;;;;5048396;28;20309;-60
2024/03/13 10:46:56;;;;;;;;;;;27.50;33.70;;;;;;5033426;28;20011;-60
2024/03/13 10:49:28;;;;;;;;;;;27.40;33.60;;;;;;5043639;28;19964;-62
2024/03/13 10:51:56;;;;;;;;;;;27.40;33.70;;;;;;5047078;28;19966;-61
2024/03/13 10:54:24;;;;;;;;;;;27.40;33.70;;;;;;5047357;28;19978;-60
2024/03/13 10:56:51;;;;;;;;;;;27.30;33.50;;;;;;5049296;28;19932;-59
2024/03/13 10:59:19;;;;;;;;;;;27.30;33.30;;;;;;5049003;28;19998;-61
2024/03/13 11:01:49;;;;;;;;;;;27.30;33.30;;;;;;5052041;28;19978;-61
2024/03/13 11:04:16;;;;;;;;;;;27.20;33.10;;;;;;5049293;28;19959;-62
2024/03/13 11:06:43;;;;;;;;;;;27.20;33.00;;;;;;5051297;28;20270;-60
2024/03/13 11:09:20;;;;;;;;;;;27.20;33.10;;;;;;5049699;28;20028;-62
2024/03/13 11:11:51;;;;;;;;;;;27.10;33.10;;;;;;5042071;28;19983;-62
2024/03/13 11:14:19;;;;;;;;;;;27.10;33.00;;;;;;5049950;28;20017;-62
2024/03/13 11:16:50;;;;;;;;;;;27.00;32.90;;;;;;5047243;28;20278;-63
2024/03/13 11:19:18;;;;;;;;;;;27.00;32.90;;;;;;5047525;28;19933;-65
2024/03/13 11:21:56;;;;;;;;;;;27.00;33.00;;;;;;5110650;27;19920;-60
2024/03/13 11:24:31;;;;;;;;;;;27.00;33.10;;;;;;5082102;28;19932;-60
2024/03/13 11:27:03;;;;;;;;;;;26.90;32.90;;;;;;5080064;28;19935;-60
2024/03/13 11:29:34;;;;;;;;;;;26.90;33.10;;;;;;5077619;28;19933;-60
2024/03/13 11:32:02;;;;;;;;;;;26.80;33.00;;;;;;5069648;28;19940;-60
2024/03/13 11:34:30;;;;;;;;;;;26.80;33.10;;;;;;5075718;28;19935;-61
2024/03/13 11:36:58;;;;;;;;;;;26.80;33.20;;;;;;5078128;28;20804;-62
2024/03/13 11:39:25;;;;;;;;;;;26.80;33.10;;;;;;5085882;28;19940;-62
2024/03/13 11:41:52;;;;;;;;;;;26.70;33.10;;;;;;5078063;28;20024;-60
2024/03/13 11:44:19;;;;;;;;;;;26.70;33.20;;;;;;5081817;28;19925;-60
2024/03/13 11:46:49;;;;;;;;;;;26.70;33.40;;;;;;5072266;28;19928;-61
2024/03/13 11:49:17;;;;;;;;;;;26.60;33.40;;;;;;5066488;28;19938;-63
2024/03/13 11:52:05;;;;;;;;;;;26.60;33.30;;;;;;5069507;28;19924;-58
2024/03/13 11:54:32;;;;;;;;;;;26.60;33.40;;;;;;5075657;28;20007;-59
2024/03/13 11:57:04;;;;;;;;;;;26.50;33.40;;;;;;5077569;28;19932;-59
2024/03/13 11:59:41;;;;;;;;;;;26.60;33.40;;;;;;5077654;28;19972;-59
2024/03/13 12:02:28;;;;;;;;;;;26.50;33.30;;;;;;5072439;28;20087;-60
2024/03/13 12:05:10;;;;;;;;;;;26.50;33.60;;;;;;5073372;28;19924;-60
2024/03/13 12:07:41;;;;;;;;;;;26.50;33.50;;;;;;5079983;28;20017;-60
2024/03/13 12:10:13;;;;;;;;;;;26.50;33.40;;;;;;5073954;28;22141;-60
2024/03/13 12:12:40;;;;;;;;;;;26.50;33.40;;;;;;5078377;28;20294;-59
2024/03/13 12:15:11;;;;;;;;;;;26.50;33.40;;;;;;5080487;28;19932;-58
2024/03/13 12:17:38;;;;;;;;;;;26.50;33.40;;;;;;5079162;28;19946;-60
2024/03/13 12:20:12;;;;;;;;;;;26.50;33.50;;;;;;5076545;28;19931;-62
2024/03/13 12:22:41;;;;;;;;;;;26.50;34.00;;;;;;5078292;28;19963;-60
2024/03/13 12:25:09;;;;;;;;;;;26.50;33.20;;;;;;5077309;28;19932;-57
2024/03/13 12:27:43;;;;;;;;;;;26.50;33.10;;;;;;5077100;28;20007;-57
2024/03/13 12:30:10;;;;;;;;;;;26.50;33.20;;;;;;5074722;28;19971;-60
2024/03/13 12:32:37;;;;;;;;;;;26.50;33.10;;;;;;5068184;28;20282;-60
2024/03/13 12:35:10;;;;;;;;;;;26.50;33.00;;;;;;5063615;28;20004;-60
2024/03/13 12:37:37;;;;;;;;;;;26.50;33.10;;;;;;5066563;28;20420;-57
2024/03/13 12:40:08;;;;;;;;;;;26.50;33.10;;;;;;5062141;28;19936;-58
2024/03/13 12:42:39;;;;;;;;;;;26.50;33.10;;;;;;5061335;28;20332;-58
2024/03/13 12:45:11;;;;;;;;;;;26.50;33.00;;;;;;5062802;28;19924;-59
2024/03/13 12:47:38;;;;;;;;;;;26.50;32.90;;;;;;5061815;28;19924;-58
2024/03/13 12:50:11;;;;;;;;;;;26.40;32.80;;;;;;5073627;28;19970;-58
2024/03/13 12:52:39;;;;;;;;;;;26.40;32.80;;;;;;5062446;28;19932;-59
2024/03/13 12:55:07;;;;;;;;;;;26.40;33.00;;;;;;5066850;28;19943;-58
2024/03/13 12:57:37;;;;;;;;;;;26.40;33.50;;;;;;5063145;28;19929;-58
2024/03/13 13:00:13;;;;;;;;;;;26.40;32.90;;;;;;5062456;28;19932;-58
2024/03/13 13:02:44;;;;;;;;;;;26.40;32.80;;;;;;5068797;28;20016;-60
2024/03/13 13:05:12;;;;;;;;;;;26.40;32.90;;;;;;5060030;28;20377;-58
2024/03/13 13:07:49;;;;;;;;;;;26.50;33.00;;;;;;5059567;28;19924;-59
2024/03/13 13:10:18;;;;;;;;;;;26.50;33.00;;;;;;5066765;28;19944;-58
2024/03/13 13:12:45;;;;;;;;;;;26.50;33.10;;;;;;5065403;28;19932;-59
2024/03/13 13:15:12;;;;;;;;;;;26.50;33.20;;;;;;5063731;28;19960;-59
2024/03/13 13:17:40;;;;;;;;;;;26.50;33.30;;;;;;5063754;28;19925;-58
2024/03/13 13:20:13;;;;;;;;;;;26.50;33.20;;;;;;5066404;28;20393;-59
2024/03/13 13:22:41;;;;;;;;;;;26.50;33.20;;;;;;5061388;28;20001;-58
2024/03/13 13:25:08;;;;;;;;;;;26.50;33.10;;;;;;5060692;28;19939;-58
2024/03/13 13:27:36;;;;;;;;;;;26.60;33.20;;;;;;5062457;28;19959;-59
2024/03/13 13:30:04;;;;;;;;;;;26.50;33.00;;;;;;5065998;28;20015;-58
2024/03/13 13:32:31;;;;;;;;;;;26.50;33.00;;;;;;5068381;28;20286;-57
2024/03/13 13:34:58;;;;;;;;;;;26.50;33.00;;;;;;5062871;28;20419;-57
2024/03/13 13:37:25;;;;;;;;;;;26.40;33.00;;;;;;5066349;28;20274;-57
2024/03/13 13:39:52;;;;;;;;;;;26.50;33.00;;;;;;5064451;28;19935;-58
2024/03/13 13:42:19;;;;;;;;;;;26.50;33.00;;;;;;5060475;28;19950;-59
2024/03/13 13:44:51;;;;;;;;;;;26.50;33.10;;;;;;5061313;28;19929;-62
2024/03/13 13:47:21;;;;;;;;;;;26.50;33.10;;;;;;5059290;28;19933;-61
2024/03/13 13:49:48;;;;;;;;;;;26.60;33.40;;;;;;5062647;28;20412;-61
2024/03/13 13:52:15;;;;;;;;;;;26.60;33.30;;;;;;5061695;28;20026;-61
2024/03/13 13:54:41;;;;;;;;;;;26.60;33.40;;;;;;5057034;28;20345;-62
2024/03/13 13:57:12;;;;;;;;;;;26.50;33.20;;;;;;5060731;28;19978;-61
2024/03/13 13:59:39;;;;;;;;;;;26.50;33.00;;;;;;5058674;28;20003;-61
2024/03/13 14:02:11;;;;;;;;;;;26.60;33.00;;;;;;5057346;28;19932;-60
2024/03/13 14:04:41;;;;;;;;;;;26.50;32.90;;;;;;5056423;28;19928;-61
2024/03/13 14:07:08;;;;;;;;;;;26.50;32.70;;;;;;5059857;28;20040;-60
2024/03/13 14:09:35;;;;;;;;;;;26.50;32.60;;;;;;5065061;28;19943;-61
2024/03/13 14:12:02;;;;;;;;;;;26.50;33.10;;;;;;5059511;28;19925;-60
2024/03/13 14:14:30;;;;;;;;;;;26.50;32.50;;;;;;5062034;28;19932;-61
2024/03/13 14:16:57;;;;;;;;;;;26.50;32.40;;;;;;5065608;28;20031;-61
2024/03/13 14:19:25;;;;;;;;;;;26.50;32.50;;;;;;5060145;28;20263;-59
2024/03/13 14:21:52;;;;;;;;;;;26.50;32.40;;;;;;5060326;28;19981;-60
2024/03/13 14:24:19;;;;;;;;;;;26.50;32.50;;;;;;5059186;28;19962;-62
2024/03/13 14:26:46;;;;;;;;;;;26.50;32.50;;;;;;5060036;28;19935;-60
2024/03/13 14:29:13;;;;;;;;;;;26.50;32.60;;;;;;5059017;28;19972;-60
2024/03/13 14:31:42;;;;;;;;;;;26.50;32.60;;;;;;5061375;28;19935;-60
2024/03/13 14:34:10;;;;;;;;;;;26.50;32.60;;;;;;5054580;28;20024;-59
2024/03/13 14:36:37;;;;;;;;;;;26.60;32.70;;;;;;5057531;28;20439;-61
2024/03/13 14:39:10;;;;;;;;;;;26.50;32.70;;;;;;5058256;28;19928;-62
2024/03/13 14:41:37;;;;;;;;;;;26.50;32.50;;;;;;5057562;28;19940;-62
2024/03/13 14:44:07;;;;;;;;;;;26.50;32.40;;;;;;5061636;28;19928;-61
2024/03/13 14:46:34;;;;;;;;;;;26.40;32.60;;;;;;5060230;28;20301;-60
2024/03/13 14:49:00;;;;;;;;;;;26.40;32.70;;;;;;5060648;28;20028;-60
2024/03/13 14:51:27;;;;;;;;;;;26.50;32.70;;;;;;5063043;28;19924;-61
2024/03/13 14:53:55;;;;;;;;;;;26.40;32.50;;;;;;5068275;28;19928;-61
2024/03/13 14:56:22;;;;;;;;;;;26.40;32.50;;;;;;5060589;28;19925;-61
2024/03/13 14:58:49;;;;;;;;;;;26.40;32.60;;;;;;5062099;28;19924;-61
2024/03/13 15:01:16;;;;;;;;;;;26.40;32.70;;;;;;5056389;28;20413;-61
2024/03/13 15:03:53;;;;;;;;;;;26.30;32.80;;;;;;5059934;28;20003;-64
2024/03/13 15:06:21;;;;;;;;;;;26.30;32.90;;;;;;5058350;28;20019;-62
2024/03/13 15:08:48;;;;;;;;;;;26.20;33.00;;;;;;5061381;28;20011;-61
2024/03/13 15:11:15;;;;;;;;;;;26.10;33.10;;;;;;5063816;28;19956;-63
2024/03/13 15:13:46;;;;;;;;;;;26.10;33.20;;;;;;5065988;28;19925;-61
2024/03/13 15:16:14;;;;;;;;;;;26.10;33.30;;;;;;5059629;28;19932;-60
2024/03/13 15:18:44;;;;;;;;;;;26.10;33.30;;;;;;5065426;28;19929;-62
2024/03/13 15:21:12;;;;;;;;;;;26.10;33.40;;;;;;5063141;28;19931;-60
2024/03/13 15:23:39;;;;;;;;;;;26.10;33.50;;;;;;5066733;28;19982;-60
2024/03/13 15:26:06;;;;;;;;;;;26.10;33.60;;;;;;5062100;28;19924;-61
2024/03/13 15:28:34;;;;;;;;;;;26.00;34.20;;;;;;5062940;28;19924;-65
2024/03/13 15:31:02;;;;;;;;;;;26.00;33.70;;;;;;5064144;28;19924;-60
2024/03/13 15:33:36;;;;;;;;;;;26.00;33.90;;;;;;5061833;28;19924;-62
2024/03/13 15:36:04;;;;;;;;;;;26.00;34.00;;;;;;5074763;28;19947;-62
2024/03/13 15:38:32;;;;;;;;;;;26.00;33.90;;;;;;5072353;28;19925;-62
2024/03/13 15:40:59;;;;;;;;;;;26.00;33.90;;;;;;5072184;28;19932;-62
2024/03/13 15:43:26;;;;;;;;;;;25.90;33.80;;;;;;5072185;28;19929;-62
2024/03/13 15:45:53;;;;;;;;;;;25.90;33.90;;;;;;5062029;28;20289;-62
2024/03/13 15:48:22;;;;;;;;;;;25.80;34.00;;;;;;5072612;28;19971;-63
2024/03/13 15:50:50;;;;;;;;;;;25.80;34.20;;;;;;5061038;28;19925;-63
2024/03/13 15:53:17;;;;;;;;;;;25.80;34.30;;;;;;5067296;28;20334;-62
2024/03/13 15:55:44;;;;;;;;;;;25.80;34.40;;;;;;5066312;28;20445;-63
2024/03/13 15:58:10;;;;;;;;;;;25.70;34.50;;;;;;5069609;28;20019;-64
2024/03/13 16:00:38;;;;;;;;;;;25.70;34.60;;;;;;5076216;28;19928;-65
2024/03/13 16:03:08;;;;;;;;;;;25.70;34.60;;;;;;5089393;28;19931;-65
2024/03/13 16:05:35;;;;;;;;;;;25.70;34.70;;;;;;5064956;28;19925;-65
2024/03/13 16:08:20;;;;;;;;;;;25.70;34.70;;;;;;5054821;28;19925;-65
2024/03/13 16:10:50;;;;;;;;;;;25.60;34.90;;;;;;5062834;28;19970;-65
2024/03/13 16:13:17;;;;;;;;;;;25.60;35.10;;;;;;5054889;28;20019;-65
2024/03/13 16:15:44;;;;;;;;;;;25.60;35.20;;;;;;5055959;28;20012;-65
2024/03/13 16:18:11;;;;;;;;;;;25.50;35.20;;;;;;5055754;28;20019;-65
2024/03/13 16:20:38;;;;;;;;;;;25.50;35.40;;;;;;5069276;28;20278;-65
2024/03/13 16:23:06;;;;;;;;;;;25.40;35.50;;;;;;5075809;28;20266;-65
2024/03/13 16:25:33;;;;;;;;;;;25.40;35.60;;;;;;5076269;28;19924;-65
2024/03/13 16:28:00;;;;;;;;;;;25.40;35.80;;;;;;5075076;28;20392;-65
2024/03/13 16:30:28;;;;;;;;;;;25.30;35.90;;;;;;5075914;28;19928;-65
2024/03/13 16:32:55;;;;;;;;;;;25.30;36.10;;;;;;5076107;28;19924;-66
2024/03/13 16:35:23;;;;;;;;;;;25.30;36.10;;;;;;5075250;28;19935;-65
2024/03/13 16:37:50;;;;;;;;;;;25.20;36.10;;;;;;5065995;28;19931;-65
2024/03/13 16:40:17;;;;;;;;;;;25.10;36.20;;;;;;5072341;28;19929;-65
2024/03/13 16:42:45;;;;;;;;;;;25.10;36.30;;;;;;5075214;28;20305;-65
2024/03/13 16:45:12;;;;;;;;;;;25.00;36.30;;;;;;5075482;28;20423;-65
2024/03/13 16:47:41;;;;;;;;;;;25.00;36.40;;;;;;5075105;28;20024;-65
2024/03/13 16:50:13;;;;;;;;;;;24.90;36.40;;;;;;5072365;28;19935;-65
2024/03/13 16:52:41;;;;;;;;;;;24.90;36.50;;;;;;5074852;28;19975;-64
2024/03/13 16:55:11;;;;;;;;;;;24.80;36.50;;;;;;5069382;28;19925;-66
2024/03/13 16:57:39;;;;;;;;;;;24.80;36.70;;;;;;5062793;28;19924;-66
2024/03/13 17:00:09;;;;;;;;;;;24.80;36.80;;;;;;5068201;28;20012;-66
2024/03/13 17:02:37;;;;;;;;;;;24.80;36.90;;;;;;5067479;28;20396;-65
2024/03/13 17:05:06;;;;;;;;;;;24.70;37.00;;;;;;5065017;28;19955;-65
2024/03/13 17:07:33;;;;;;;;;;;24.70;37.10;;;;;;5054958;28;19931;-62
2024/03/13 17:10:00;;;;;;;;;;;24.60;37.30;;;;;;5054674;28;20390;-69
2024/03/13 17:12:28;;;;;;;;;;;24.60;37.80;;;;;;5054028;28;19984;-68
2024/03/13 17:14:55;;;;;;;;;;;24.60;39.00;;;;;;5055001;28;19979;-63
2024/03/13 17:17:22;;;;;;;;;;;24.60;40.90;;;;;;5059099;28;19924;-68
2024/03/13 17:19:51;;;;;;;;;;;24.50;42.20;;;;;;5074543;28;19985;-69
2024/03/13 17:22:21;;;;;;;;;;;24.50;43.00;;;;;;5074924;28;19924;-69
2024/03/13 17:24:48;;;;;;;;;;;24.50;43.20;;;;;;5073423;28;19978;-68
2024/03/13 17:27:15;;;;;;;;;;;24.50;43.00;;;;;;5074498;28;20083;-69
2024/03/13 17:29:44;;;;;;;;;;;24.40;42.60;;;;;;5074574;28;19924;-68
2024/03/13 17:32:12;;;;;;;;;;;24.50;42.60;;;;;;5074654;28;19929;-68
2024/03/13 17:34:39;;;;;;;;;;;24.40;42.10;;;;;;5074617;28;19931;-64
2024/03/13 17:37:07;;;;;;;;;;;24.40;41.90;;;;;;5074715;28;19982;-65
2024/03/13 17:39:34;;;;;;;;;;;24.40;41.90;;;;;;5074361;28;19931;-65
2024/03/13 17:42:02;;;;;;;;;;;24.30;41.80;;;;;;5074021;28;19954;-65
2024/03/13 17:44:33;;;;;;;;;;;24.30;42.00;;;;;;5062439;28;19939;-65
2024/03/13 17:47:00;;;;;;;;;;;24.30;42.20;;;;;;5054521;28;19956;-65
2024/03/13 17:49:27;;;;;;;;;;;24.30;42.50;;;;;;5054444;28;19925;-65
2024/03/13 17:51:54;;;;;;;;;;;24.20;42.50;;;;;;5054274;28;20353;-65
2024/03/13 17:54:21;;;;;;;;;;;24.20;42.50;;;;;;5054138;28;19924;-65
2024/03/13 17:56:53;;;;;;;;;;;24.20;42.40;;;;;;5056253;28;19925;-65
2024/03/13 17:59:20;;;;;;;;;;;24.20;42.20;;;;;;5073414;28;19928;-66
2024/03/13 18:01:47;;;;;;;;;;;24.10;42.00;;;;;;5073654;28;20443;-65
2024/03/13 18:04:16;;;;;;;;;;;24.10;41.80;;;;;;5073737;28;19931;-65
2024/03/13 18:06:43;;;;;;;;;;;24.10;41.70;;;;;;5073669;28;19928;-65
2024/03/13 18:09:10;;;;;;;;;;;24.00;41.60;;;;;;5074180;28;19930;-67
2024/03/13 18:11:37;;;;;;;;;;;24.10;41.50;;;;;;5073982;28;19925;-65
2024/03/13 18:14:06;;;;;;;;;;;24.00;41.40;;;;;;5074027;28;20263;-64
2024/03/13 18:16:35;;;;;;;;;;;24.00;41.30;;;;;;5073775;28;19931;-65
2024/03/13 18:19:03;;;;;;;;;;;23.90;41.20;;;;;;5073869;28;19970;-65
2024/03/13 18:21:30;;;;;;;;;;;23.90;41.10;;;;;;5073606;28;20332;-65
2024/03/13 18:23:58;;;;;;;;;;;23.90;41.10;;;;;;5073810;28;19924;-65
2024/03/13 18:26:30;;;;;;;;;;;23.90;41.20;;;;;;5073773;28;20022;-65
2024/03/13 18:28:58;;;;;;;;;;;23.90;41.10;;;;;;5072325;28;20381;-65
2024/03/13 18:31:26;;;;;;;;;;;23.80;41.10;;;;;;5071849;28;19924;-65
2024/03/13 18:33:53;;;;;;;;;;;23.80;41.10;;;;;;5073599;28;19929;-65
2024/03/13 18:36:20;;;;;;;;;;;23.80;41.10;;;;;;5073355;28;19925;-65
2024/03/13 18:38:48;;;;;;;;;;;23.80;41.00;;;;;;5073403;28;19940;-64
2024/03/13 18:41:19;;;;;;;;;;;23.80;41.00;;;;;;5073910;28;19932;-65
2024/03/13 18:43:46;;;;;;;;;;;23.70;40.90;;;;;;5072918;28;19936;-65
2024/03/13 18:46:19;;;;;;;;;;;23.70;40.90;;;;;;5073057;28;19975;-65
2024/03/13 18:48:46;;;;;;;;;;;23.70;40.80;;;;;;5073350;28;19924;-65
2024/03/13 18:51:16;;;;;;;;;;;23.70;40.80;;;;;;5073278;28;19975;-64
2024/03/13 18:53:46;;;;;;;;;;;23.70;40.80;;;;;;5073332;28;19931;-65
2024/03/13 18:56:14;;;;;;;;;;;23.70;40.80;;;;;;5072982;28;20382;-65
2024/03/13 18:58:41;;;;;;;;;;;23.70;40.80;;;;;;5073018;28;19924;-65
2024/03/13 19:01:09;;;;;;;;;;;23.70;40.80;;;;;;5073616;28;19974;-65
2024/03/13 19:03:36;;;;;;;;;;;23.70;40.80;;;;;;5073229;28;19934;-65
2024/03/13 19:06:06;;;;;;;;;;;23.60;40.70;;;;;;5072923;28;19971;-64
2024/03/13 19:08:33;;;;;;;;;;;23.60;40.70;;;;;;5073013;28;19928;-64
2024/03/13 19:11:01;;;;;;;;;;;23.60;40.70;;;;;;5073394;28;19924;-65
2024/03/13 19:13:28;;;;;;;;;;;23.60;40.80;;;;;;5073227;28;19948;-65
2024/03/13 19:15:55;;;;;;;;;;;23.60;40.80;;;;;;5071983;28;19966;-65
2024/03/13 19:18:22;;;;;;;;;;;23.60;40.80;;;;;;5072734;28;19925;-65
2024/03/13 19:20:49;;;;;;;;;;;23.50;40.70;;;;;;5073033;28;20271;-65
2024/03/13 19:23:16;;;;;;;;;;;23.60;40.80;;;;;;5072921;28;19924;-65
2024/03/13 19:25:43;;;;;;;;;;;23.50;40.70;;;;;;5072801;28;20400;-65
2024/03/13 19:28:11;;;;;;;;;;;23.50;41.30;;;;;;5073039;28;19928;-65